sensor_id;sensor_type;location;lat;lon;timestamp;P1;durP1;ratioP1;P2;durP2;ratioP2
73841;SDS011;62184;52.006;5.924;2022-08-03T00:00:24;8.15;;;3.00;;
73841;SDS011;62184;52.006;5.924;2022-08-03T00:02:50;8.85;;;3.05;;
73841;SDS011;62184;52.006;5.924;2022-08-03T00:05:17;10.52;;;2.92;;
73841;SDS011;62184;52.006;5.924;2022-08-03T00:07:43;8.25;;;3.35;;
73841;SDS011;62184;52.006;5.924;2022-08-03T00:10:09;7.65;;;3.47;;
73841;SDS011;62184;52.006;5.924;2022-08-03T00:12:38;8.48;;;3.53;;
73841;SDS011;62184;52.006;5.924;2022-08-03T00:15:05;9.60;;;3.13;;
73841;SDS011;62184;52.006;5.924;2022-08-03T00:17:35;9.07;;;3.40;;
73841;SDS011;62184;52.006;5.924;2022-08-03T00:20:01;9.63;;;3.25;;
73841;SDS011;62184;52.006;5.924;2022-08-03T00:22:28;9.27;;;2.83;;
73841;SDS011;62184;52.006;5.924;2022-08-03T00:24:54;8.27;;;3.15;;
73841;SDS011;62184;52.006;5.924;2022-08-03T00:27:21;7.28;;;2.70;;
73841;SDS011;62184;52.006;5.924;2022-08-03T00:29:47;6.65;;;2.75;;
73841;SDS011;62184;52.006;5.924;2022-08-03T00:32:13;9.05;;;2.33;;
73841;SDS011;62184;52.006;5.924;2022-08-03T00:34:42;9.10;;;3.22;;
73841;SDS011;62184;52.006;5.924;2022-08-03T00:37:09;8.60;;;2.95;;
73841;SDS011;62184;52.006;5.924;2022-08-03T00:39:35;9.35;;;3.45;;
73841;SDS011;62184;52.006;5.924;2022-08-03T00:42:01;7.70;;;2.72;;
73841;SDS011;62184;52.006;5.924;2022-08-03T00:44:28;10.63;;;3.47;;
73841;SDS011;62184;52.006;5.924;2022-08-03T00:46:56;8.35;;;3.20;;
73841;SDS011;62184;52.006;5.924;2022-08-03T00:49:22;9.90;;;2.60;;
73841;SDS011;62184;52.006;5.924;2022-08-03T00:51:52;7.53;;;2.50;;
73841;SDS011;62184;52.006;5.924;2022-08-03T00:54:18;7.45;;;2.55;;
73841;SDS011;62184;52.006;5.924;2022-08-03T00:56:45;9.60;;;3.55;;
73841;SDS011;62184;52.006;5.924;2022-08-03T00:59:12;8.68;;;3.17;;
73841;SDS011;62184;52.006;5.924;2022-08-03T01:01:40;8.18;;;3.42;;
73841;SDS011;62184;52.006;5.924;2022-08-03T01:04:07;8.82;;;2.58;;
73841;SDS011;62184;52.006;5.924;2022-08-03T01:06:35;9.77;;;3.05;;
73841;SDS011;62184;52.006;5.924;2022-08-03T01:09:18;9.68;;;3.00;;
73841;SDS011;62184;52.006;5.924;2022-08-03T01:11:58;8.27;;;3.05;;
73841;SDS011;62184;52.006;5.924;2022-08-03T01:14:37;15.45;;;3.33;;
73841;SDS011;62184;52.006;5.924;2022-08-03T01:17:10;8.82;;;2.40;;
73841;SDS011;62184;52.006;5.924;2022-08-03T01:19:48;7.97;;;2.70;;
73841;SDS011;62184;52.006;5.924;2022-08-03T01:22:36;8.05;;;2.70;;
73841;SDS011;62184;52.006;5.924;2022-08-03T01:25:31;8.32;;;2.80;;
73841;SDS011;62184;52.006;5.924;2022-08-03T01:28:19;6.75;;;2.45;;
73841;SDS011;62184;52.006;5.924;2022-08-03T01:31:05;9.55;;;3.17;;
73841;SDS011;62184;52.006;5.924;2022-08-03T01:33:35;8.50;;;2.90;;
73841;SDS011;62184;52.006;5.924;2022-08-03T01:36:08;6.38;;;3.05;;
73841;SDS011;62184;52.006;5.924;2022-08-03T01:38:40;8.60;;;3.15;;
73841;SDS011;62184;52.006;5.924;2022-08-03T01:41:14;10.10;;;3.40;;
73841;SDS011;62184;52.006;5.924;2022-08-03T01:43:46;9.70;;;2.92;;
73841;SDS011;62184;52.006;5.924;2022-08-03T01:46:19;10.98;;;3.33;;
73841;SDS011;62184;52.006;5.924;2022-08-03T01:48:47;9.05;;;2.97;;
73841;SDS011;62184;52.006;5.924;2022-08-03T01:51:15;9.60;;;2.90;;
73841;SDS011;62184;52.006;5.924;2022-08-03T01:53:45;9.93;;;2.80;;
73841;SDS011;62184;52.006;5.924;2022-08-03T01:56:15;7.68;;;2.97;;
73841;SDS011;62184;52.006;5.924;2022-08-03T01:58:44;7.80;;;2.80;;
73841;SDS011;62184;52.006;5.924;2022-08-03T02:01:15;8.07;;;2.67;;
73841;SDS011;62184;52.006;5.924;2022-08-03T02:03:45;11.70;;;3.10;;
73841;SDS011;62184;52.006;5.924;2022-08-03T02:06:17;8.20;;;2.85;;
73841;SDS011;62184;52.006;5.924;2022-08-03T02:08:47;7.97;;;2.80;;
73841;SDS011;62184;52.006;5.924;2022-08-03T02:11:18;10.10;;;2.90;;
73841;SDS011;62184;52.006;5.924;2022-08-03T02:13:44;10.95;;;3.28;;
73841;SDS011;62184;52.006;5.924;2022-08-03T02:16:14;11.20;;;3.72;;
73841;SDS011;62184;52.006;5.924;2022-08-03T02:18:48;8.82;;;3.05;;
73841;SDS011;62184;52.006;5.924;2022-08-03T02:21:16;8.82;;;3.53;;
73841;SDS011;62184;52.006;5.924;2022-08-03T02:23:43;11.20;;;3.88;;
73841;SDS011;62184;52.006;5.924;2022-08-03T02:26:10;7.45;;;2.70;;
73841;SDS011;62184;52.006;5.924;2022-08-03T02:28:45;9.35;;;3.13;;
73841;SDS011;62184;52.006;5.924;2022-08-03T02:31:18;9.43;;;3.03;;
73841;SDS011;62184;52.006;5.924;2022-08-03T02:33:52;9.68;;;2.95;;
73841;SDS011;62184;52.006;5.924;2022-08-03T02:36:24;8.25;;;2.85;;
73841;SDS011;62184;52.006;5.924;2022-08-03T02:38:57;10.40;;;2.97;;
73841;SDS011;62184;52.006;5.924;2022-08-03T02:41:27;7.57;;;3.58;;
73841;SDS011;62184;52.006;5.924;2022-08-03T02:44:01;8.77;;;3.58;;
73841;SDS011;62184;52.006;5.924;2022-08-03T02:46:36;10.07;;;3.20;;
73841;SDS011;62184;52.006;5.924;2022-08-03T02:49:08;7.70;;;2.58;;
73841;SDS011;62184;52.006;5.924;2022-08-03T02:51:38;13.13;;;3.53;;
73841;SDS011;62184;52.006;5.924;2022-08-03T02:54:07;9.50;;;3.03;;
73841;SDS011;62184;52.006;5.924;2022-08-03T02:56:36;11.80;;;3.00;;
73841;SDS011;62184;52.006;5.924;2022-08-03T02:59:04;9.15;;;3.20;;
73841;SDS011;62184;52.006;5.924;2022-08-03T03:01:35;9.77;;;3.33;;
73841;SDS011;62184;52.006;5.924;2022-08-03T03:04:03;8.50;;;2.95;;
73841;SDS011;62184;52.006;5.924;2022-08-03T03:06:32;11.63;;;3.00;;
73841;SDS011;62184;52.006;5.924;2022-08-03T03:09:00;14.30;;;3.83;;
73841;SDS011;62184;52.006;5.924;2022-08-03T03:11:27;11.23;;;3.92;;
73841;SDS011;62184;52.006;5.924;2022-08-03T03:13:56;10.18;;;3.33;;
73841;SDS011;62184;52.006;5.924;2022-08-03T03:16:24;10.77;;;3.55;;
73841;SDS011;62184;52.006;5.924;2022-08-03T03:18:56;10.02;;;3.53;;
73841;SDS011;62184;52.006;5.924;2022-08-03T03:21:24;9.18;;;4.10;;
73841;SDS011;62184;52.006;5.924;2022-08-03T03:23:53;10.82;;;3.25;;
73841;SDS011;62184;52.006;5.924;2022-08-03T03:26:20;10.05;;;3.83;;
73841;SDS011;62184;52.006;5.924;2022-08-03T03:28:47;10.90;;;3.47;;
73841;SDS011;62184;52.006;5.924;2022-08-03T03:31:14;9.77;;;4.63;;
73841;SDS011;62184;52.006;5.924;2022-08-03T03:33:40;10.40;;;4.50;;
73841;SDS011;62184;52.006;5.924;2022-08-03T03:36:10;11.13;;;4.18;;
73841;SDS011;62184;52.006;5.924;2022-08-03T03:38:36;10.90;;;4.07;;
73841;SDS011;62184;52.006;5.924;2022-08-03T03:41:03;11.43;;;4.20;;
73841;SDS011;62184;52.006;5.924;2022-08-03T03:43:30;9.57;;;3.75;;
73841;SDS011;62184;52.006;5.924;2022-08-03T03:45:57;13.00;;;4.07;;
73841;SDS011;62184;52.006;5.924;2022-08-03T03:48:24;11.20;;;4.90;;
73841;SDS011;62184;52.006;5.924;2022-08-03T03:50:51;14.27;;;4.47;;
73841;SDS011;62184;52.006;5.924;2022-08-03T03:53:20;14.60;;;4.90;;
73841;SDS011;62184;52.006;5.924;2022-08-03T03:55:47;13.77;;;5.05;;
73841;SDS011;62184;52.006;5.924;2022-08-03T03:58:13;12.90;;;4.57;;
73841;SDS011;62184;52.006;5.924;2022-08-03T04:00:40;10.50;;;4.25;;
73841;SDS011;62184;52.006;5.924;2022-08-03T04:03:06;14.82;;;4.22;;
73841;SDS011;62184;52.006;5.924;2022-08-03T04:05:35;10.05;;;4.65;;
73841;SDS011;62184;52.006;5.924;2022-08-03T04:08:02;11.10;;;4.10;;
73841;SDS011;62184;52.006;5.924;2022-08-03T04:10:36;13.98;;;5.32;;
73841;SDS011;62184;52.006;5.924;2022-08-03T04:13:08;12.38;;;4.50;;
73841;SDS011;62184;52.006;5.924;2022-08-03T04:15:40;11.65;;;4.38;;
73841;SDS011;62184;52.006;5.924;2022-08-03T04:18:08;11.13;;;4.65;;
73841;SDS011;62184;52.006;5.924;2022-08-03T04:20:39;13.68;;;5.30;;
73841;SDS011;62184;52.006;5.924;2022-08-03T04:23:12;14.50;;;5.50;;
73841;SDS011;62184;52.006;5.924;2022-08-03T04:25:47;12.50;;;4.53;;
73841;SDS011;62184;52.006;5.924;2022-08-03T04:28:18;11.18;;;4.65;;
73841;SDS011;62184;52.006;5.924;2022-08-03T04:30:48;17.10;;;5.15;;
73841;SDS011;62184;52.006;5.924;2022-08-03T04:33:17;12.77;;;4.22;;
73841;SDS011;62184;52.006;5.924;2022-08-03T04:35:46;11.48;;;4.70;;
73841;SDS011;62184;52.006;5.924;2022-08-03T04:38:14;12.38;;;5.15;;
73841;SDS011;62184;52.006;5.924;2022-08-03T04:40:43;11.70;;;5.10;;
73841;SDS011;62184;52.006;5.924;2022-08-03T04:43:15;14.10;;;5.35;;
73841;SDS011;62184;52.006;5.924;2022-08-03T04:45:46;10.73;;;5.05;;
73841;SDS011;62184;52.006;5.924;2022-08-03T04:48:15;14.65;;;4.95;;
73841;SDS011;62184;52.006;5.924;2022-08-03T04:50:42;11.40;;;4.97;;
73841;SDS011;62184;52.006;5.924;2022-08-03T04:53:09;14.45;;;5.07;;
73841;SDS011;62184;52.006;5.924;2022-08-03T04:55:35;12.45;;;5.10;;
73841;SDS011;62184;52.006;5.924;2022-08-03T04:58:04;14.55;;;5.72;;
73841;SDS011;62184;52.006;5.924;2022-08-03T05:00:31;12.88;;;4.88;;
73841;SDS011;62184;52.006;5.924;2022-08-03T05:02:57;16.60;;;5.40;;
73841;SDS011;62184;52.006;5.924;2022-08-03T05:05:24;10.65;;;5.15;;
73841;SDS011;62184;52.006;5.924;2022-08-03T05:07:50;14.15;;;5.40;;
73841;SDS011;62184;52.006;5.924;2022-08-03T05:10:17;12.07;;;5.55;;
73841;SDS011;62184;52.006;5.924;2022-08-03T05:12:44;13.10;;;5.80;;
73841;SDS011;62184;52.006;5.924;2022-08-03T05:15:14;13.35;;;5.75;;
73841;SDS011;62184;52.006;5.924;2022-08-03T05:17:41;12.15;;;6.10;;
73841;SDS011;62184;52.006;5.924;2022-08-03T05:20:08;15.80;;;6.60;;
73841;SDS011;62184;52.006;5.924;2022-08-03T05:22:36;13.98;;;5.38;;
73841;SDS011;62184;52.006;5.924;2022-08-03T05:25:03;13.07;;;5.22;;
73841;SDS011;62184;52.006;5.924;2022-08-03T05:27:30;11.05;;;5.28;;
73841;SDS011;62184;52.006;5.924;2022-08-03T05:29:56;11.05;;;4.75;;
73841;SDS011;62184;52.006;5.924;2022-08-03T05:32:25;15.18;;;4.95;;
73841;SDS011;62184;52.006;5.924;2022-08-03T05:34:52;12.38;;;4.93;;
73841;SDS011;62184;52.006;5.924;2022-08-03T05:37:18;13.90;;;4.43;;
73841;SDS011;62184;52.006;5.924;2022-08-03T05:39:44;12.80;;;4.63;;
73841;SDS011;62184;52.006;5.924;2022-08-03T05:42:13;11.57;;;4.60;;
73841;SDS011;62184;52.006;5.924;2022-08-03T05:44:40;10.25;;;5.13;;
73841;SDS011;62184;52.006;5.924;2022-08-03T05:47:06;11.05;;;4.97;;
73841;SDS011;62184;52.006;5.924;2022-08-03T05:49:35;10.95;;;4.78;;
73841;SDS011;62184;52.006;5.924;2022-08-03T05:52:02;13.02;;;4.47;;
73841;SDS011;62184;52.006;5.924;2022-08-03T05:54:29;10.57;;;4.95;;
73841;SDS011;62184;52.006;5.924;2022-08-03T05:56:55;12.50;;;4.40;;
73841;SDS011;62184;52.006;5.924;2022-08-03T05:59:22;13.35;;;4.82;;
73841;SDS011;62184;52.006;5.924;2022-08-03T06:01:48;12.82;;;4.82;;
73841;SDS011;62184;52.006;5.924;2022-08-03T06:04:15;12.88;;;5.40;;
73841;SDS011;62184;52.006;5.924;2022-08-03T06:06:43;11.00;;;4.95;;
73841;SDS011;62184;52.006;5.924;2022-08-03T06:09:10;12.50;;;4.63;;
73841;SDS011;62184;52.006;5.924;2022-08-03T06:11:36;12.18;;;5.10;;
73841;SDS011;62184;52.006;5.924;2022-08-03T06:14:03;12.45;;;4.60;;
73841;SDS011;62184;52.006;5.924;2022-08-03T06:16:29;9.35;;;4.60;;
73841;SDS011;62184;52.006;5.924;2022-08-03T06:18:56;12.45;;;4.63;;
73841;SDS011;62184;52.006;5.924;2022-08-03T06:21:22;12.45;;;4.65;;
73841;SDS011;62184;52.006;5.924;2022-08-03T06:23:51;11.85;;;4.53;;
73841;SDS011;62184;52.006;5.924;2022-08-03T06:26:17;12.13;;;3.70;;
73841;SDS011;62184;52.006;5.924;2022-08-03T06:28:44;9.55;;;4.43;;
73841;SDS011;62184;52.006;5.924;2022-08-03T06:31:10;11.93;;;4.18;;
73841;SDS011;62184;52.006;5.924;2022-08-03T06:33:37;10.00;;;3.60;;
73841;SDS011;62184;52.006;5.924;2022-08-03T06:36:04;12.10;;;4.90;;
73841;SDS011;62184;52.006;5.924;2022-08-03T06:38:31;11.82;;;4.38;;
73841;SDS011;62184;52.006;5.924;2022-08-03T06:41:00;13.43;;;4.30;;
73841;SDS011;62184;52.006;5.924;2022-08-03T06:43:26;10.88;;;3.95;;
73841;SDS011;62184;52.006;5.924;2022-08-03T06:45:52;9.50;;;3.70;;
73841;SDS011;62184;52.006;5.924;2022-08-03T06:48:19;14.23;;;4.13;;
73841;SDS011;62184;52.006;5.924;2022-08-03T06:50:45;11.77;;;4.00;;
73841;SDS011;62184;52.006;5.924;2022-08-03T06:53:11;13.13;;;4.00;;
73841;SDS011;62184;52.006;5.924;2022-08-03T06:55:38;11.77;;;4.18;;
73841;SDS011;62184;52.006;5.924;2022-08-03T06:58:07;14.97;;;3.67;;
73841;SDS011;62184;52.006;5.924;2022-08-03T07:00:33;11.38;;;4.15;;
73841;SDS011;62184;52.006;5.924;2022-08-03T07:02:59;11.48;;;4.15;;
73841;SDS011;62184;52.006;5.924;2022-08-03T07:05:26;11.93;;;4.15;;
73841;SDS011;62184;52.006;5.924;2022-08-03T07:07:53;12.95;;;4.22;;
73841;SDS011;62184;52.006;5.924;2022-08-03T07:10:20;12.73;;;4.03;;
73841;SDS011;62184;52.006;5.924;2022-08-03T07:12:47;11.98;;;3.97;;
73841;SDS011;62184;52.006;5.924;2022-08-03T07:15:16;12.13;;;4.20;;
73841;SDS011;62184;52.006;5.924;2022-08-03T07:17:42;12.68;;;4.53;;
73841;SDS011;62184;52.006;5.924;2022-08-03T07:20:09;10.18;;;3.72;;
73841;SDS011;62184;52.006;5.924;2022-08-03T07:22:36;12.33;;;4.03;;
73841;SDS011;62184;52.006;5.924;2022-08-03T07:25:03;11.90;;;4.00;;
73841;SDS011;62184;52.006;5.924;2022-08-03T07:27:30;16.52;;;4.25;;
73841;SDS011;62184;52.006;5.924;2022-08-03T07:29:57;12.18;;;3.92;;
73841;SDS011;62184;52.006;5.924;2022-08-03T07:32:26;10.93;;;3.83;;
73841;SDS011;62184;52.006;5.924;2022-08-03T07:34:53;10.80;;;3.20;;
73841;SDS011;62184;52.006;5.924;2022-08-03T07:37:19;12.73;;;3.70;;
73841;SDS011;62184;52.006;5.924;2022-08-03T07:39:46;10.23;;;3.50;;
73841;SDS011;62184;52.006;5.924;2022-08-03T07:42:12;14.38;;;3.70;;
73841;SDS011;62184;52.006;5.924;2022-08-03T07:44:38;12.80;;;3.17;;
73841;SDS011;62184;52.006;5.924;2022-08-03T07:47:05;13.73;;;3.63;;
73841;SDS011;62184;52.006;5.924;2022-08-03T07:49:37;11.10;;;3.55;;
73841;SDS011;62184;52.006;5.924;2022-08-03T07:52:04;10.20;;;2.70;;
73841;SDS011;62184;52.006;5.924;2022-08-03T07:54:31;13.68;;;2.70;;
73841;SDS011;62184;52.006;5.924;2022-08-03T07:56:57;10.75;;;2.80;;
73841;SDS011;62184;52.006;5.924;2022-08-03T07:59:23;11.20;;;3.00;;
73841;SDS011;62184;52.006;5.924;2022-08-03T08:01:50;12.05;;;3.08;;
73841;SDS011;62184;52.006;5.924;2022-08-03T08:04:16;12.20;;;3.00;;
73841;SDS011;62184;52.006;5.924;2022-08-03T08:06:45;9.77;;;2.33;;
73841;SDS011;62184;52.006;5.924;2022-08-03T08:09:11;10.73;;;2.53;;
73841;SDS011;62184;52.006;5.924;2022-08-03T08:11:39;14.17;;;3.87;;
73841;SDS011;62184;52.006;5.924;2022-08-03T08:14:05;12.70;;;3.08;;
73841;SDS011;62184;52.006;5.924;2022-08-03T08:16:31;13.50;;;2.95;;
73841;SDS011;62184;52.006;5.924;2022-08-03T08:18:58;11.80;;;3.08;;
73841;SDS011;62184;52.006;5.924;2022-08-03T08:21:24;13.70;;;3.05;;
73841;SDS011;62184;52.006;5.924;2022-08-03T08:23:53;12.77;;;2.70;;
73841;SDS011;62184;52.006;5.924;2022-08-03T08:26:20;13.65;;;2.90;;
73841;SDS011;62184;52.006;5.924;2022-08-03T08:28:46;13.63;;;2.88;;
73841;SDS011;62184;52.006;5.924;2022-08-03T08:31:13;13.55;;;3.38;;
73841;SDS011;62184;52.006;5.924;2022-08-03T08:33:39;12.55;;;2.88;;
73841;SDS011;62184;52.006;5.924;2022-08-03T08:36:05;14.03;;;3.53;;
73841;SDS011;62184;52.006;5.924;2022-08-03T08:38:33;10.65;;;3.20;;
73841;SDS011;62184;52.006;5.924;2022-08-03T08:41:02;10.88;;;2.90;;
73841;SDS011;62184;52.006;5.924;2022-08-03T08:43:29;11.50;;;2.90;;
73841;SDS011;62184;52.006;5.924;2022-08-03T08:45:56;12.75;;;3.50;;
73841;SDS011;62184;52.006;5.924;2022-08-03T08:48:24;11.13;;;3.10;;
73841;SDS011;62184;52.006;5.924;2022-08-03T08:50:54;13.18;;;3.22;;
73841;SDS011;62184;52.006;5.924;2022-08-03T08:53:23;14.13;;;2.78;;
73841;SDS011;62184;52.006;5.924;2022-08-03T08:55:52;12.48;;;2.80;;
73841;SDS011;62184;52.006;5.924;2022-08-03T08:58:27;11.70;;;3.03;;
73841;SDS011;62184;52.006;5.924;2022-08-03T09:00:59;16.60;;;3.17;;
73841;SDS011;62184;52.006;5.924;2022-08-03T09:03:25;14.10;;;3.58;;
73841;SDS011;62184;52.006;5.924;2022-08-03T09:05:52;14.25;;;3.00;;
73841;SDS011;62184;52.006;5.924;2022-08-03T09:08:19;16.50;;;2.40;;
73841;SDS011;62184;52.006;5.924;2022-08-03T09:10:46;10.52;;;2.40;;
73841;SDS011;62184;52.006;5.924;2022-08-03T09:13:13;12.53;;;3.10;;
73841;SDS011;62184;52.006;5.924;2022-08-03T09:15:42;9.70;;;2.28;;
73841;SDS011;62184;52.006;5.924;2022-08-03T09:18:09;14.18;;;3.47;;
73841;SDS011;62184;52.006;5.924;2022-08-03T09:20:35;13.85;;;2.80;;
73841;SDS011;62184;52.006;5.924;2022-08-03T09:23:02;15.30;;;3.08;;
73841;SDS011;62184;52.006;5.924;2022-08-03T09:25:32;13.40;;;2.53;;
73841;SDS011;62184;52.006;5.924;2022-08-03T09:28:07;13.45;;;2.88;;
73841;SDS011;62184;52.006;5.924;2022-08-03T09:30:37;15.00;;;2.80;;
73841;SDS011;62184;52.006;5.924;2022-08-03T09:33:09;14.98;;;3.05;;
73841;SDS011;62184;52.006;5.924;2022-08-03T09:35:41;12.85;;;3.15;;
73841;SDS011;62184;52.006;5.924;2022-08-03T09:38:09;15.83;;;3.70;;
73841;SDS011;62184;52.006;5.924;2022-08-03T09:40:38;13.20;;;2.75;;
73841;SDS011;62184;52.006;5.924;2022-08-03T09:43:05;13.50;;;3.05;;
73841;SDS011;62184;52.006;5.924;2022-08-03T09:45:31;13.30;;;2.85;;
73841;SDS011;62184;52.006;5.924;2022-08-03T09:47:59;18.63;;;2.47;;
73841;SDS011;62184;52.006;5.924;2022-08-03T09:50:49;13.43;;;2.80;;
73841;SDS011;62184;52.006;5.924;2022-08-03T09:53:16;15.40;;;2.92;;
73841;SDS011;62184;52.006;5.924;2022-08-03T09:55:49;12.65;;;2.50;;
73841;SDS011;62184;52.006;5.924;2022-08-03T09:58:16;12.48;;;2.97;;
73841;SDS011;62184;52.006;5.924;2022-08-03T10:00:52;14.15;;;2.70;;
73841;SDS011;62184;52.006;5.924;2022-08-03T10:03:26;15.63;;;2.90;;
73841;SDS011;62184;52.006;5.924;2022-08-03T10:05:55;12.82;;;3.22;;
73841;SDS011;62184;52.006;5.924;2022-08-03T10:08:22;12.90;;;2.67;;
73841;SDS011;62184;52.006;5.924;2022-08-03T10:10:49;12.90;;;2.83;;
73841;SDS011;62184;52.006;5.924;2022-08-03T10:13:18;10.95;;;2.33;;
73841;SDS011;62184;52.006;5.924;2022-08-03T10:15:45;14.43;;;2.50;;
73841;SDS011;62184;52.006;5.924;2022-08-03T10:18:12;12.73;;;2.38;;
73841;SDS011;62184;52.006;5.924;2022-08-03T10:20:42;15.30;;;3.15;;
73841;SDS011;62184;52.006;5.924;2022-08-03T10:23:16;12.73;;;2.47;;
73841;SDS011;62184;52.006;5.924;2022-08-03T10:25:45;13.35;;;2.80;;
73841;SDS011;62184;52.006;5.924;2022-08-03T10:28:17;10.53;;;3.10;;
73841;SDS011;62184;52.006;5.924;2022-08-03T10:30:47;11.38;;;2.83;;
73841;SDS011;62184;52.006;5.924;2022-08-03T10:33:18;10.35;;;2.92;;
73841;SDS011;62184;52.006;5.924;2022-08-03T10:35:49;12.93;;;2.70;;
73841;SDS011;62184;52.006;5.924;2022-08-03T10:38:20;12.27;;;2.42;;
73841;SDS011;62184;52.006;5.924;2022-08-03T10:40:54;13.53;;;2.27;;
73841;SDS011;62184;52.006;5.924;2022-08-03T10:43:25;11.25;;;2.67;;
73841;SDS011;62184;52.006;5.924;2022-08-03T10:46:01;10.75;;;2.08;;
73841;SDS011;62184;52.006;5.924;2022-08-03T10:48:31;9.57;;;2.40;;
73841;SDS011;62184;52.006;5.924;2022-08-03T10:51:02;10.90;;;2.83;;
73841;SDS011;62184;52.006;5.924;2022-08-03T10:53:33;13.43;;;2.90;;
73841;SDS011;62184;52.006;5.924;2022-08-03T10:56:01;12.23;;;2.42;;
73841;SDS011;62184;52.006;5.924;2022-08-03T11:01:15;9.73;;;2.15;;
73841;SDS011;62184;52.006;5.924;2022-08-03T11:06:44;10.93;;;2.60;;
73841;SDS011;62184;52.006;5.924;2022-08-03T11:09:16;11.68;;;2.90;;
73841;SDS011;62184;52.006;5.924;2022-08-03T11:11:43;10.23;;;2.42;;
73841;SDS011;62184;52.006;5.924;2022-08-03T11:14:13;15.10;;;2.53;;
73841;SDS011;62184;52.006;5.924;2022-08-03T11:16:43;11.20;;;2.47;;
73841;SDS011;62184;52.006;5.924;2022-08-03T11:19:13;11.40;;;2.30;;
73841;SDS011;62184;52.006;5.924;2022-08-03T11:21:54;9.88;;;2.30;;
73841;SDS011;62184;52.006;5.924;2022-08-03T11:27:23;10.27;;;2.10;;
73841;SDS011;62184;52.006;5.924;2022-08-03T11:29:55;12.48;;;2.58;;
73841;SDS011;62184;52.006;5.924;2022-08-03T11:35:23;10.43;;;2.10;;
73841;SDS011;62184;52.006;5.924;2022-08-03T11:38:05;9.38;;;1.83;;
73841;SDS011;62184;52.006;5.924;2022-08-03T11:40:34;11.70;;;2.42;;
73841;SDS011;62184;52.006;5.924;2022-08-03T11:43:06;12.40;;;2.50;;
73841;SDS011;62184;52.006;5.924;2022-08-03T11:45:55;12.07;;;3.27;;
73841;SDS011;62184;52.006;5.924;2022-08-03T11:48:26;14.25;;;2.97;;
73841;SDS011;62184;52.006;5.924;2022-08-03T11:50:58;10.40;;;2.20;;
73841;SDS011;62184;52.006;5.924;2022-08-03T11:53:27;10.77;;;2.22;;
73841;SDS011;62184;52.006;5.924;2022-08-03T11:55:57;12.48;;;2.50;;
73841;SDS011;62184;52.006;5.924;2022-08-03T11:58:26;9.93;;;2.00;;
73841;SDS011;62184;52.006;5.924;2022-08-03T12:01:01;10.45;;;2.30;;
73841;SDS011;62184;52.006;5.924;2022-08-03T12:03:31;10.48;;;2.33;;
73841;SDS011;62184;52.006;5.924;2022-08-03T12:05:59;8.95;;;2.20;;
73841;SDS011;62184;52.006;5.924;2022-08-03T12:08:32;9.15;;;1.90;;
73841;SDS011;62184;52.006;5.924;2022-08-03T12:10:59;6.83;;;1.70;;
73841;SDS011;62184;52.006;5.924;2022-08-03T12:13:34;10.70;;;2.08;;
73841;SDS011;62184;52.006;5.924;2022-08-03T12:16:03;9.27;;;2.00;;
73841;SDS011;62184;52.006;5.924;2022-08-03T12:18:30;10.68;;;2.00;;
73841;SDS011;62184;52.006;5.924;2022-08-03T12:21:02;9.95;;;2.05;;
73841;SDS011;62184;52.006;5.924;2022-08-03T12:23:34;13.37;;;2.53;;
73841;SDS011;62184;52.006;5.924;2022-08-03T12:26:03;13.00;;;2.40;;
73841;SDS011;62184;52.006;5.924;2022-08-03T12:28:32;12.63;;;2.20;;
73841;SDS011;62184;52.006;5.924;2022-08-03T12:31:00;12.27;;;2.85;;
73841;SDS011;62184;52.006;5.924;2022-08-03T12:33:29;11.10;;;2.15;;
73841;SDS011;62184;52.006;5.924;2022-08-03T12:36:03;11.50;;;2.50;;
73841;SDS011;62184;52.006;5.924;2022-08-03T12:38:35;10.95;;;1.90;;
73841;SDS011;62184;52.006;5.924;2022-08-03T12:41:04;10.75;;;2.10;;
73841;SDS011;62184;52.006;5.924;2022-08-03T12:43:33;11.82;;;2.60;;
73841;SDS011;62184;52.006;5.924;2022-08-03T12:46:09;10.65;;;1.90;;
73841;SDS011;62184;52.006;5.924;2022-08-03T12:51:42;12.55;;;2.63;;
73841;SDS011;62184;52.006;5.924;2022-08-03T12:54:25;9.40;;;1.77;;
73841;SDS011;62184;52.006;5.924;2022-08-03T12:56:56;8.65;;;1.80;;
73841;SDS011;62184;52.006;5.924;2022-08-03T12:59:24;9.90;;;2.20;;
73841;SDS011;62184;52.006;5.924;2022-08-03T13:01:52;8.33;;;1.70;;
73841;SDS011;62184;52.006;5.924;2022-08-03T13:04:24;9.60;;;2.00;;
73841;SDS011;62184;52.006;5.924;2022-08-03T13:06:58;8.73;;;1.83;;
73841;SDS011;62184;52.006;5.924;2022-08-03T13:09:30;9.55;;;1.95;;
73841;SDS011;62184;52.006;5.924;2022-08-03T13:12:07;8.68;;;1.63;;
73841;SDS011;62184;52.006;5.924;2022-08-03T13:14:35;9.37;;;1.53;;
73841;SDS011;62184;52.006;5.924;2022-08-03T13:17:03;7.97;;;1.48;;
73841;SDS011;62184;52.006;5.924;2022-08-03T13:19:30;9.00;;;1.48;;
73841;SDS011;62184;52.006;5.924;2022-08-03T13:21:57;6.72;;;1.70;;
73841;SDS011;62184;52.006;5.924;2022-08-03T13:24:23;8.65;;;1.58;;
73841;SDS011;62184;52.006;5.924;2022-08-03T13:26:52;8.50;;;1.93;;
73841;SDS011;62184;52.006;5.924;2022-08-03T13:29:19;8.13;;;1.98;;
73841;SDS011;62184;52.006;5.924;2022-08-03T13:31:45;7.75;;;1.90;;
73841;SDS011;62184;52.006;5.924;2022-08-03T13:34:11;9.68;;;2.00;;
73841;SDS011;62184;52.006;5.924;2022-08-03T13:36:38;7.10;;;1.83;;
73841;SDS011;62184;52.006;5.924;2022-08-03T13:39:04;7.67;;;1.87;;
73841;SDS011;62184;52.006;5.924;2022-08-03T13:41:30;7.40;;;1.70;;
73841;SDS011;62184;52.006;5.924;2022-08-03T13:43:59;5.90;;;1.73;;
73841;SDS011;62184;52.006;5.924;2022-08-03T13:46:26;6.53;;;2.00;;
73841;SDS011;62184;52.006;5.924;2022-08-03T13:48:52;5.55;;;2.08;;
73841;SDS011;62184;52.006;5.924;2022-08-03T13:51:18;6.40;;;2.10;;
73841;SDS011;62184;52.006;5.924;2022-08-03T13:53:45;6.45;;;1.90;;
73841;SDS011;62184;52.006;5.924;2022-08-03T13:56:11;5.30;;;1.50;;
73841;SDS011;62184;52.006;5.924;2022-08-03T13:58:37;7.55;;;1.70;;
73841;SDS011;62184;52.006;5.924;2022-08-03T14:01:07;7.22;;;2.08;;
73841;SDS011;62184;52.006;5.924;2022-08-03T14:03:33;6.43;;;1.60;;
73841;SDS011;62184;52.006;5.924;2022-08-03T14:06:00;8.00;;;1.95;;
73841;SDS011;62184;52.006;5.924;2022-08-03T14:08:27;5.47;;;1.70;;
73841;SDS011;62184;52.006;5.924;2022-08-03T14:10:54;7.30;;;2.13;;
73841;SDS011;62184;52.006;5.924;2022-08-03T14:13:20;5.43;;;1.70;;
73841;SDS011;62184;52.006;5.924;2022-08-03T14:15:47;4.83;;;1.53;;
73841;SDS011;62184;52.006;5.924;2022-08-03T14:18:16;6.18;;;1.85;;
73841;SDS011;62184;52.006;5.924;2022-08-03T14:20:44;5.80;;;1.98;;
73841;SDS011;62184;52.006;5.924;2022-08-03T14:23:10;6.60;;;1.67;;
73841;SDS011;62184;52.006;5.924;2022-08-03T14:25:37;6.78;;;1.80;;
73841;SDS011;62184;52.006;5.924;2022-08-03T14:28:03;5.23;;;1.60;;
73841;SDS011;62184;52.006;5.924;2022-08-03T14:30:30;6.80;;;2.08;;
73841;SDS011;62184;52.006;5.924;2022-08-03T14:32:56;6.03;;;1.58;;
73841;SDS011;62184;52.006;5.924;2022-08-03T14:35:25;5.75;;;1.80;;
73841;SDS011;62184;52.006;5.924;2022-08-03T14:37:51;6.65;;;2.30;;
73841;SDS011;62184;52.006;5.924;2022-08-03T14:40:18;7.07;;;2.07;;
73841;SDS011;62184;52.006;5.924;2022-08-03T14:42:45;5.72;;;1.88;;
73841;SDS011;62184;52.006;5.924;2022-08-03T14:45:12;7.90;;;2.20;;
73841;SDS011;62184;52.006;5.924;2022-08-03T14:47:38;6.20;;;2.10;;
73841;SDS011;62184;52.006;5.924;2022-08-03T14:50:06;5.95;;;2.20;;
73841;SDS011;62184;52.006;5.924;2022-08-03T14:52:36;6.60;;;1.80;;
73841;SDS011;62184;52.006;5.924;2022-08-03T14:55:03;7.50;;;2.30;;
73841;SDS011;62184;52.006;5.924;2022-08-03T14:57:30;5.70;;;1.50;;
73841;SDS011;62184;52.006;5.924;2022-08-03T14:59:57;6.85;;;1.70;;
73841;SDS011;62184;52.006;5.924;2022-08-03T15:02:23;4.82;;;1.73;;